Airfield :
LOGIN :

Register | Disclaimer

   EN    FR    IT 

 










Legend :    VFR   Marginal VFR   IFR   Intensive IFR   Very Intensive IFR
Visi :
Ceiling :
>= 8 km
>= 3000ft
5 to 8 km
1000 to 3000 ft
1500m to 5 km
500 to 1000 ft
800 to 1500m
200 to 500 ft
< 800m
< 200 ft
Symbols :   Thunderstorms  Fog  Heavy snow  Heavy precipitations  Wind > 20 kt
SIGMETs :     Misc.  Thunderstorms  Icing  Turbulence  Mountain Waves  Volcanic Ashes






- Airport Elevation : 27 ft
- IATA code : PMI


LEPA - Palma de Mallorca

CURRENT METAR :
  • 221300Z 25010KT 210V270 CAVOK 34/01 Q1012 NOSIG

EXPIRED METARs :
  • 221230Z 24009KT CAVOK 34/M03 Q1012 NOSIG
  • 221200Z 24009KT 210V280 CAVOK 33/M04 Q1012 NOSIG
  • 221130Z 24007KT 200V270 CAVOK 32/M06 Q1013 NOSIG
  • 221100Z 25008KT 210V280 CAVOK 34/// Q1013 NOSIG
  • 221030Z 23008KT 200V260 CAVOK 33/M05 Q1013 NOSIG

TAF TAF LEPA
Valid from the 22 at 12:00 until the 23 at 12:00 UTC


221100Z 2212/2312 21010KT CAVOK TX34/2212Z TN16/2305Z
BECMG 2218/2220 VRB03KT
BECMG 2304/2306 22010KT



MET'MAP, your aeronautical weather chart ! - Copyright ORBIFLY December 2007 - Disclaimer

ORBIFLY MET'MAP TEAM :

Programming & Development : Alexandra Zaïnal
Original concept : Baudouin d'Aumeries
Technical & hardware support : Manuel Goepfert
Assistance : Marc-Olivier Méhu

Contact : metmap@orbifly.com




SOURCES & CREDITS :

   NOAA